Time;durP1;ratioP1;P1;durP2;ratioP2;P2;SDS_P1;SDS_P2;PMS_P1;PMS_P2;Temp;Humidity;BMP_temperature;BMP_pressure;BME280_temperature;BME280_humidity;BME280_pressure;Samples;Min_cycle;Max_cycle;Signal;HPM_P1;HPM_P2
2022/11/07 00:01:59;;;;;;;14.13;7.15;;;;;;;11.32;59.80;100007.47;4426863;32;20088;-89
2022/11/07 00:04:27;;;;;;;16.50;7.82;;;;;;;11.13;59.79;100011.56;4413883;32;20112;-90
2022/11/07 00:06:52;;;;;;;14.45;7.03;;;;;;;11.15;59.79;100014.97;4414129;32;20108;-90
2022/11/07 00:09:18;;;;;;;15.60;7.70;;;;;;;11.25;59.80;100016.37;4425867;32;30120;-91
2022/11/07 00:11:43;;;;;;;13.35;6.97;;;;;;;11.26;59.80;100018.09;4426824;32;20411;-90
2022/11/07 00:14:11;;;;;;;15.77;8.50;;;;;;;11.20;59.79;100018.28;4413885;32;20113;-90
2022/11/07 00:16:37;;;;;;;14.18;7.53;;;;;;;11.25;59.80;100016.37;4415709;32;20458;-90
2022/11/07 00:19:03;;;;;;;13.05;7.47;;;;;;;11.27;59.80;100021.56;4439636;32;20116;-89
2022/11/07 00:21:28;;;;;;;18.50;7.28;;;;;;;11.26;59.80;100027.66;4412955;32;31842;-91
2022/11/07 00:23:54;;;;;;;17.40;7.47;;;;;;;11.37;59.80;100025.59;4414836;32;20109;-91
2022/11/07 00:26:19;;;;;;;14.23;7.50;;;;;;;11.24;59.80;100027.72;4415039;32;20134;-91
2022/11/07 00:28:45;;;;;;;15.45;7.30;;;;;;;11.24;59.80;100035.53;4415447;32;20132;-93
2022/11/07 00:31:11;;;;;;;12.98;7.85;;;;;;;11.43;59.80;100043.66;4428332;32;20344;-92
2022/11/07 00:33:36;;;;;;;14.73;7.12;;;;;;;11.31;59.80;100039.66;4415303;32;20397;-91
2022/11/07 00:36:02;;;;;;;12.63;7.78;;;;;;;11.29;59.79;100040.59;4415236;32;20156;-92
2022/11/07 00:38:28;;;;;;;15.52;6.78;;;;;;;11.35;59.80;100041.25;4415146;32;20120;-92
2022/11/07 00:40:55;;;;;;;11.75;6.40;;;;;;;11.35;59.80;100041.25;4415224;32;20105;-92
2022/11/07 00:43:20;;;;;;;12.85;7.57;;;;;;;11.30;59.79;100032.72;4415487;32;20152;-92
2022/11/07 00:45:45;;;;;;;14.85;7.97;;;;;;;11.44;59.80;100034.06;4414956;32;20124;-91
2022/11/07 00:48:11;;;;;;;11.95;6.97;;;;;;;11.50;59.81;100031.28;4440444;32;20178;-92
2022/11/07 00:50:36;;;;;;;13.50;7.45;;;;;;;11.37;59.81;100029.06;4440874;32;20097;-92
2022/11/07 00:53:02;;;;;;;13.80;8.05;;;;;;;11.50;59.81;100026.06;4415236;32;20111;-91
2022/11/07 00:55:27;;;;;;;16.05;8.20;;;;;;;11.64;59.82;100031.69;4427434;32;20120;-91
2022/11/07 00:57:52;;;;;;;22.77;8.52;;;;;;;11.64;59.82;100029.09;4414208;32;24499;-91
2022/11/07 01:00:18;;;;;;;16.77;8.05;;;;;;;11.56;59.81;100029.31;4414482;32;20151;-90
2022/11/07 01:02:43;;;;;;;13.62;6.95;;;;;;;11.64;59.82;100031.69;4414201;32;25492;-91
2022/11/07 01:05:09;;;;;;;13.65;7.85;;;;;;;11.82;59.82;100031.13;4440132;32;20148;-92
2022/11/07 01:07:34;;;;;;;13.68;7.10;;;;;;;11.88;59.83;100032.69;4427276;32;20200;-90
2022/11/07 01:09:59;;;;;;;15.32;7.40;;;;;;;11.82;59.82;100041.56;4414282;32;20176;-90
2022/11/07 01:12:25;;;;;;;17.30;8.13;;;;;;;11.66;59.82;100032.50;4414420;32;20149;-90
2022/11/07 01:14:50;;;;;;;13.80;6.85;;;;;;;11.61;59.82;100039.63;4413697;32;21882;-89
2022/11/07 01:17:16;;;;;;;13.30;7.57;;;;;;;11.70;59.82;100034.09;4413759;32;22157;-90
2022/11/07 01:19:41;;;;;;;22.13;8.98;;;;;;;11.76;59.83;100036.50;4426676;32;20117;-90
2022/11/07 01:22:06;;;;;;;18.00;8.73;;;;;;;11.73;59.82;100034.00;4413395;32;33638;-89
2022/11/07 01:24:32;;;;;;;13.50;7.10;;;;;;;11.79;59.83;100031.22;4413607;32;26682;-90
2022/11/07 01:26:57;;;;;;;15.55;8.63;;;;;;;11.82;59.82;100032.88;4426261;32;21921;-90
2022/11/07 01:29:23;;;;;;;13.00;7.22;;;;;;;11.78;59.83;100026.91;4413665;32;24488;-90
2022/11/07 01:31:49;;;;;;;14.38;7.72;;;;;;;11.89;59.83;100027.44;4414218;32;20096;-89
2022/11/07 01:34:16;;;;;;;16.48;7.85;;;;;;;11.90;59.84;100029.12;4427266;32;20243;-90
2022/11/07 01:36:42;;;;;;;13.90;7.53;;;;;;;11.83;59.83;100037.19;4429353;32;20169;-92
2022/11/07 01:39:07;;;;;;;16.55;8.15;;;;;;;11.91;59.84;100035.19;4416820;32;20446;-91
2022/11/07 01:41:34;;;;;;;17.83;8.93;;;;;;;11.92;59.84;100034.31;4417537;32;20134;-93
2022/11/07 01:44:06;;;;;;;15.07;8.43;;;;;;;11.94;59.83;100035.94;4431069;32;20109;-91
2022/11/07 01:46:33;;;;;;;16.80;7.87;;;;;;;11.95;59.83;100034.19;4443968;32;20104;-91
2022/11/07 01:49:21;;;;;;;13.62;7.82;;;;;;;11.97;59.84;100041.06;4445562;32;20092;-92
2022/11/07 01:52:07;;;;;;;15.55;8.95;;;;;;;12.11;59.84;100039.75;4444879;32;20151;-91
2022/11/07 01:54:36;;;;;;;17.85;8.10;;;;;;;12.12;59.84;100034.50;4430315;32;20482;-92
2022/11/07 01:57:04;;;;;;;18.70;8.75;;;;;;;12.04;59.84;100044.31;4423990;32;20105;-91
2022/11/07 01:59:29;;;;;;;18.77;8.50;;;;;;;12.08;59.84;100035.50;4418725;32;20097;-91
2022/11/07 02:04:50;;;;;;;14.63;7.28;;;;;;;12.33;59.85;100037.28;4556017;26;20146;-89
2022/11/07 02:07:18;;;;;;;14.50;7.78;;;;;;;12.32;59.85;100039.03;4400828;32;20179;-90
2022/11/07 02:09:43;;;;;;;14.05;7.60;;;;;;;12.13;59.84;100043.16;4400959;32;20550;-90
2022/11/07 02:12:08;;;;;;;18.33;7.15;;;;;;;12.15;59.85;100044.81;4401021;32;20428;-90
2022/11/07 02:14:34;;;;;;;15.25;7.60;;;;;;;12.17;59.85;100050.84;4400821;32;20125;-89
2022/11/07 02:16:59;;;;;;;15.82;8.48;;;;;;;12.24;59.85;100036.66;4425747;32;20121;-88
2022/11/07 02:19:32;;;;;;;18.37;8.48;;;;;;;12.18;59.85;100041.25;4400605;32;20160;-89
2022/11/07 02:22:27;;;;;;;14.77;7.40;;;;;;;12.19;59.85;100033.37;4401023;32;20097;-89
2022/11/07 02:24:55;;;;;;;15.80;8.55;;;;;;;12.17;59.85;100036.94;4427028;32;20105;-89
2022/11/07 02:27:21;;;;;;;16.20;8.35;;;;;;;12.22;59.85;100040.25;4426054;32;20482;-89
2022/11/07 02:29:47;;;;;;;15.35;7.87;;;;;;;12.16;59.85;100038.69;4413211;32;20111;-89
2022/11/07 02:32:12;;;;;;;12.40;7.78;;;;;;;12.30;59.86;100040.81;4400631;32;20085;-88
2022/11/07 02:34:38;;;;;;;12.45;7.57;;;;;;;12.25;59.85;100037.53;4399703;32;29008;-89
2022/11/07 02:37:05;;;;;;;15.32;8.45;;;;;;;12.31;59.86;100034.72;4412705;32;20097;-90
2022/11/07 02:39:31;;;;;;;14.18;7.78;;;;;;;12.21;59.85;100031.56;4400677;32;20490;-89
2022/11/07 02:41:57;;;;;;;17.65;9.05;;;;;;;12.35;59.85;100022.41;4412447;32;29645;-89
2022/11/07 02:44:22;;;;;;;16.27;8.60;;;;;;;12.28;59.86;100025.22;4400435;32;20109;-89
2022/11/07 02:46:48;;;;;;;14.63;8.15;;;;;;;12.36;59.86;100022.34;4412674;32;20136;-88
2022/11/07 02:49:13;;;;;;;14.10;7.97;;;;;;;12.55;59.87;100018.19;4413084;32;20462;-89
2022/11/07 02:51:38;;;;;;;16.30;8.10;;;;;;;12.55;59.87;100017.34;4399584;32;32989;-89
2022/11/07 02:54:04;;;;;;;15.63;8.15;;;;;;;12.53;59.87;100017.38;4413289;32;20140;-88
2022/11/07 02:56:29;;;;;;;16.90;7.82;;;;;;;12.51;59.87;100020.94;4412427;32;27656;-88
2022/11/07 02:58:55;;;;;;;18.92;7.87;;;;;;;12.48;59.86;100014.06;4397163;32;26085;-89
2022/11/07 03:01:20;;;;;;;30.15;8.77;;;;;;;12.41;59.86;100022.19;4422475;32;29631;-88
2022/11/07 03:03:47;;;;;;;16.33;7.60;;;;;;;12.41;59.86;100020.44;4410296;32;20109;-89
2022/11/07 03:06:14;;;;;;;16.87;8.73;;;;;;;12.30;59.86;100022.53;4397913;32;20172;-89
2022/11/07 03:08:40;;;;;;;16.10;8.82;;;;;;;12.40;59.86;100018.72;4410432;32;20113;-89
2022/11/07 03:11:06;;;;;;;16.85;9.98;;;;;;;12.36;59.86;100021.50;4410566;32;20105;-90
2022/11/07 03:13:31;;;;;;;17.33;9.43;;;;;;;12.54;59.87;100018.25;4397783;32;20142;-90
2022/11/07 03:15:57;;;;;;;16.87;8.82;;;;;;;12.51;59.87;100019.19;4397726;32;20227;-88
2022/11/07 03:18:22;;;;;;;18.58;8.88;;;;;;;12.39;59.86;100024.84;4410229;32;20085;-88
2022/11/07 03:20:48;;;;;;;20.12;9.27;;;;;;;12.32;59.85;100032.97;4410271;32;20104;-87
2022/11/07 03:23:13;;;;;;;22.15;8.77;;;;;;;12.42;59.86;100024.75;4422476;32;29423;-87
2022/11/07 03:25:38;;;;;;;15.63;9.90;;;;;;;12.49;59.86;100022.75;4423039;32;20105;-88
2022/11/07 03:28:04;;;;;;;18.42;9.95;;;;;;;12.61;59.87;100022.34;4423042;32;20118;-88
2022/11/07 03:30:29;;;;;;;24.00;10.63;;;;;;;12.57;59.86;100023.37;4410351;32;20085;-88
2022/11/07 03:32:55;;;;;;;22.05;11.27;;;;;;;12.54;59.87;100023.47;4422851;32;20163;-87
2022/11/07 03:35:20;;;;;;;24.60;10.18;;;;;;;12.59;59.87;100026.78;4409577;32;31765;-87
2022/11/07 03:37:46;;;;;;;17.65;9.80;;;;;;;12.65;59.87;100023.06;4422252;32;23924;-88
2022/11/07 03:40:12;;;;;;;21.85;9.75;;;;;;;12.70;59.88;100028.97;4410425;32;20086;-88
2022/11/07 03:42:41;;;;;;;22.55;11.07;;;;;;;12.85;59.88;100024.06;4397499;32;20144;-88
2022/11/07 03:45:07;;;;;;;18.92;10.50;;;;;;;12.69;59.88;100019.44;4410318;32;20165;-88
2022/11/07 03:47:36;;;;;;;21.83;10.57;;;;;;;12.60;59.87;100023.25;4422980;32;20394;-89
2022/11/07 03:50:01;;;;;;;28.25;14.98;;;;;;;12.81;59.88;100021.62;4410163;32;20094;-88
2022/11/07 03:52:27;;;;;;;140.40;62.20;;;;;;;12.82;59.89;100024.19;4422910;32;20132;-88
2022/11/07 03:54:52;;;;;;;92.70;45.40;;;;;;;12.68;59.88;100033.41;4410136;32;20159;-89
2022/11/07 03:57:18;;;;;;;96.47;49.47;;;;;;;12.68;59.88;100025.56;4421897;32;20466;-88
2022/11/07 03:59:43;;;;;;;50.88;25.55;;;;;;;12.72;59.87;100035.00;4409524;32;21156;-89
2022/11/07 04:07:56;;;;;;;28.05;14.40;;;;;;;12.74;59.88;100043.63;4408414;32;20409;-88
2022/11/07 04:10:21;;;;;;;26.67;12.60;;;;;;;12.70;59.87;100048.13;4410105;32;20110;-87
2022/11/07 04:18:15;;;;;;;24.67;12.18;;;;;;;12.76;59.88;100052.25;4423917;32;20729;-88
2022/11/07 04:20:40;;;;;;;33.10;14.20;;;;;;;12.74;59.88;100051.47;4397439;32;20130;-88
2022/11/07 04:23:06;;;;;;;29.50;16.12;;;;;;;12.66;59.88;100056.12;4410306;32;20118;-87
2022/11/07 04:28:16;;;;;;;28.87;15.30;;;;;;;13.13;59.91;100044.78;4425266;32;20094;-87
2022/11/07 04:30:42;;;;;;;26.30;14.23;;;;;;;13.25;59.90;100047.84;4397815;32;20426;-87
2022/11/07 04:33:07;;;;;;;29.20;14.18;;;;;;;13.22;59.91;100043.59;4410499;32;20191;-88
2022/11/07 04:35:32;;;;;;;27.02;12.40;;;;;;;13.06;59.90;100042.47;4423248;32;37184;-88
2022/11/07 04:37:58;;;;;;;23.87;12.95;;;;;;;13.08;59.90;100043.25;4429190;32;30479;-89
2022/11/07 04:40:24;;;;;;;22.92;11.70;;;;;;;12.96;59.88;100039.31;4437923;32;20112;-88
2022/11/07 04:42:49;;;;;;;22.02;12.43;;;;;;;12.84;59.89;100032.81;4425733;32;20097;-89
2022/11/07 04:45:15;;;;;;;22.35;11.60;;;;;;;13.15;59.90;100021.19;4408647;32;20501;-88
2022/11/07 04:47:40;;;;;;;23.00;11.20;;;;;;;13.11;59.89;100025.69;4413255;32;20175;-88
2022/11/07 04:50:09;;;;;;;23.12;11.07;;;;;;;12.91;59.89;100029.06;4410996;32;28349;-88
2022/11/07 04:52:34;;;;;;;25.45;12.43;;;;;;;12.75;59.88;100032.28;4409671;32;20508;-89
2022/11/07 04:55:00;;;;;;;23.90;12.75;;;;;;;12.71;59.87;100035.91;4396876;32;20101;-88
2022/11/07 04:57:25;;;;;;;22.00;11.52;;;;;;;12.65;59.87;100034.38;4408660;32;36191;-87
2022/11/07 04:59:50;;;;;;;21.52;11.35;;;;;;;12.67;59.88;100040.41;4396166;32;24358;-88
2022/11/07 05:02:16;;;;;;;26.62;12.60;;;;;;;12.71;59.87;100041.97;4408377;32;21046;-88
2022/11/07 05:04:41;;;;;;;26.58;13.52;;;;;;;12.77;59.88;100041.75;4408322;32;32138;-87
2022/11/07 05:07:07;;;;;;;26.85;13.10;;;;;;;12.74;59.88;100043.63;4408788;32;20498;-88
2022/11/07 05:09:33;;;;;;;31.35;16.35;;;;;;;12.73;59.89;100047.16;4409481;32;26538;-91
2022/11/07 05:11:58;;;;;;;32.65;14.80;;;;;;;12.65;59.87;100042.22;4398204;32;20113;-88
2022/11/07 05:14:24;;;;;;;27.20;14.30;;;;;;;12.61;59.87;100045.84;4410745;32;20432;-86
2022/11/07 05:16:49;;;;;;;26.10;13.02;;;;;;;12.56;59.87;100055.59;4410121;32;20136;-87
2022/11/07 05:19:16;;;;;;;27.90;14.87;;;;;;;12.52;59.87;100046.16;4422967;32;20086;-86
2022/11/07 05:21:42;;;;;;;24.05;12.75;;;;;;;12.48;59.86;100045.41;4410989;32;20440;-90
2022/11/07 05:24:07;;;;;;;28.90;13.65;;;;;;;12.50;59.86;100042.75;4398529;32;20190;-91
2022/11/07 05:26:33;;;;;;;24.48;13.23;;;;;;;12.47;59.86;100048.06;4397571;32;20497;-90
2022/11/07 05:29:09;;;;;;;26.58;13.13;;;;;;;12.60;59.87;100038.91;4410180;32;22949;-90
2022/11/07 05:31:35;;;;;;;28.12;13.18;;;;;;;12.60;59.87;100045.00;4399380;32;20213;-91
2022/11/07 05:34:00;;;;;;;23.92;12.82;;;;;;;12.65;59.87;100042.22;4410707;32;26387;-91
2022/11/07 05:36:26;;;;;;;28.50;13.80;;;;;;;12.68;59.88;100046.47;4398851;32;20510;-91
2022/11/07 05:38:51;;;;;;;26.02;13.75;;;;;;;12.73;59.88;100044.53;4397827;32;29229;-90
2022/11/07 05:41:18;;;;;;;24.55;12.20;;;;;;;12.95;59.89;100053.31;4398680;32;20128;-90
2022/11/07 05:43:43;;;;;;;24.70;12.30;;;;;;;13.07;59.89;100065.06;4410872;32;20227;-89
2022/11/07 05:46:09;;;;;;;19.85;10.85;;;;;;;13.00;59.89;100072.25;4410319;32;26746;-91
2022/11/07 05:48:34;;;;;;;24.30;11.20;;;;;;;12.82;59.89;100078.19;4400430;32;20169;-89
2022/11/07 05:51:00;;;;;;;21.77;10.40;;;;;;;12.70;59.88;100081.22;4414503;32;20872;-90
2022/11/07 05:53:25;;;;;;;25.33;11.05;;;;;;;12.57;59.86;100081.66;4414327;32;20149;-90
2022/11/07 05:55:51;;;;;;;22.95;10.38;;;;;;;12.63;59.87;100084.97;4399512;32;20101;-90
2022/11/07 05:58:17;;;;;;;23.33;9.98;;;;;;;12.55;59.87;100095.69;4397383;32;20115;-90
2022/11/07 06:00:42;;;;;;;25.80;11.55;;;;;;;12.50;59.88;100101.03;4397796;32;20114;-90
2022/11/07 06:03:08;;;;;;;26.80;12.52;;;;;;;12.59;59.88;100095.53;4410599;32;20437;-90
2022/11/07 06:05:33;;;;;;;25.20;11.60;;;;;;;12.63;59.87;100092.78;4423029;32;20093;-89
2022/11/07 06:07:59;;;;;;;24.67;12.02;;;;;;;12.63;59.87;100106.72;4397740;32;20094;-90
2022/11/07 06:10:24;;;;;;;26.80;11.60;;;;;;;12.65;59.87;100097.06;4397631;32;20148;-90
2022/11/07 06:13:00;;;;;;;22.70;12.25;;;;;;;12.59;59.87;100099.88;4397805;32;20169;-90
2022/11/07 06:15:26;;;;;;;23.15;11.40;;;;;;;12.79;59.88;100114.87;4398076;32;20105;-90
2022/11/07 06:17:52;;;;;;;30.08;14.32;;;;;;;12.94;59.89;100110.84;4410596;32;20113;-89
2022/11/07 06:20:17;;;;;;;27.80;14.00;;;;;;;13.12;59.90;100115.41;4397522;32;20160;-88
2022/11/07 06:22:42;;;;;;;22.85;11.65;;;;;;;13.00;59.89;100131.50;4397451;32;20522;-90
2022/11/07 06:25:08;;;;;;;29.58;13.62;;;;;;;12.79;59.88;100133.16;4409712;32;30602;-90
2022/11/07 06:27:33;;;;;;;23.65;11.80;;;;;;;13.11;59.89;100137.22;4397351;32;20120;-90
2022/11/07 06:29:59;;;;;;;23.65;11.48;;;;;;;12.69;59.88;100136.97;4397370;32;20158;-89
2022/11/07 06:32:24;;;;;;;29.00;12.82;;;;;;;12.88;59.88;100149.34;4410311;32;20105;-90
2022/11/07 06:34:49;;;;;;;31.37;13.32;;;;;;;12.99;59.89;100154.19;4397768;32;20197;-89
2022/11/07 06:37:15;;;;;;;28.55;13.00;;;;;;;12.91;59.89;100153.59;4423485;32;20210;-89
2022/11/07 06:39:40;;;;;;;23.73;11.93;;;;;;;13.10;59.89;100154.66;4397704;32;20101;-89
2022/11/07 06:42:06;;;;;;;28.05;12.52;;;;;;;13.20;59.91;100148.22;4397232;32;30856;-89
2022/11/07 06:44:31;;;;;;;30.77;11.98;;;;;;;13.16;59.90;100159.66;4422941;32;20125;-88
2022/11/07 06:46:56;;;;;;;37.35;13.23;;;;;;;13.24;59.90;100154.19;4410546;32;20168;-89
2022/11/07 06:49:22;;;;;;;31.17;12.45;;;;;;;13.35;59.91;100157.28;4397839;32;20129;-89
2022/11/07 06:51:47;;;;;;;24.37;12.37;;;;;;;13.44;59.92;100150.84;4409954;32;29679;-90
2022/11/07 06:54:14;;;;;;;31.52;13.27;;;;;;;13.35;59.91;100154.66;4397542;32;20145;-89
2022/11/07 06:56:39;;;;;;;31.30;13.07;;;;;;;13.43;59.92;100162.22;4397841;32;20177;-89
2022/11/07 06:59:05;;;;;;;27.15;11.73;;;;;;;13.47;59.91;100164.66;4409796;32;25966;-89
2022/11/07 07:01:30;;;;;;;31.85;13.70;;;;;;;13.31;59.91;100166.16;4424038;32;20145;-89
2022/11/07 07:03:55;;;;;;;26.08;12.43;;;;;;;13.40;59.92;100162.34;4412745;32;20153;-89
2022/11/07 07:06:21;;;;;;;27.50;12.75;;;;;;;13.31;59.91;100162.69;4412868;32;20426;-89
2022/11/07 07:08:46;;;;;;;29.75;13.52;;;;;;;13.37;59.91;100165.06;4400050;32;20829;-89
2022/11/07 07:11:13;;;;;;;27.00;11.95;;;;;;;13.55;59.92;100174.84;4400384;32;20149;-90
2022/11/07 07:13:38;;;;;;;25.65;11.40;;;;;;;13.78;59.93;100181.84;4413031;32;20097;-89
2022/11/07 07:16:04;;;;;;;26.67;12.55;;;;;;;13.96;59.95;100172.41;4400562;32;20120;-90
2022/11/07 07:18:29;;;;;;;30.52;11.98;;;;;;;14.04;59.95;100180.81;4412865;32;20120;-89
2022/11/07 07:21:02;;;;;;;24.75;11.35;;;;;;;13.88;59.94;100179.69;4401404;32;20148;-89
2022/11/07 07:23:27;;;;;;;29.00;12.05;;;;;;;13.81;59.94;100179.94;4401691;32;20079;-90
2022/11/07 07:25:53;;;;;;;20.90;10.65;;;;;;;13.67;59.93;100182.22;4418006;32;20109;-90
2022/11/07 07:28:18;;;;;;;25.58;12.18;;;;;;;13.76;59.93;100179.28;4411113;32;20136;-90
2022/11/07 07:30:43;;;;;;;27.83;13.00;;;;;;;13.69;59.93;100174.31;4413366;32;20108;-90
2022/11/07 07:33:09;;;;;;;22.25;11.75;;;;;;;13.73;59.93;100175.94;4417977;32;20184;-89
2022/11/07 07:35:34;;;;;;;31.27;10.68;;;;;;;14.02;59.94;100187.88;4427583;32;20144;-89
2022/11/07 07:38:00;;;;;;;20.10;10.77;;;;;;;14.03;59.95;100184.34;4400253;32;20101;-89
2022/11/07 07:40:25;;;;;;;24.77;11.15;;;;;;;13.98;59.94;100183.69;4400138;32;20195;-90
2022/11/07 07:42:50;;;;;;;26.48;10.98;;;;;;;14.18;59.96;100183.72;4399462;32;26837;-90
2022/11/07 07:45:16;;;;;;;22.70;10.48;;;;;;;14.36;59.96;100180.38;4425511;32;20144;-90
2022/11/07 07:47:41;;;;;;;23.75;10.23;;;;;;;14.42;59.97;100187.13;4412739;32;20097;-90
2022/11/07 07:50:08;;;;;;;20.20;9.68;;;;;;;14.29;59.96;100189.41;4399976;32;20148;-89
2022/11/07 07:52:33;;;;;;;20.73;10.15;;;;;;;14.31;59.96;100186.72;4412962;32;20089;-90
2022/11/07 07:54:59;;;;;;;21.65;10.40;;;;;;;14.53;59.97;100184.13;4412684;32;20184;-90
2022/11/07 07:57:24;;;;;;;20.67;9.95;;;;;;;14.36;59.96;100190.84;4399980;32;20177;-90
2022/11/07 07:59:50;;;;;;;20.20;9.40;;;;;;;14.45;59.97;100187.06;4399161;32;32700;-89
2022/11/07 08:02:15;;;;;;;26.52;10.70;;;;;;;14.57;59.98;100191.78;4412255;32;20120;-90
2022/11/07 08:04:41;;;;;;;19.92;9.57;;;;;;;14.55;59.98;100187.53;4412066;32;24481;-90
2022/11/07 08:07:06;;;;;;;21.15;9.50;;;;;;;14.49;59.97;100188.63;4399801;32;20163;-90
2022/11/07 08:09:35;;;;;;;20.95;10.45;;;;;;;14.57;59.98;100185.69;4399924;32;20108;-90
2022/11/07 08:12:03;;;;;;;21.27;10.10;;;;;;;14.45;59.97;100187.06;4412837;32;20367;-89
2022/11/07 08:14:29;;;;;;;29.08;11.25;;;;;;;14.70;59.98;100190.38;4412378;32;20093;-90
2022/11/07 08:16:54;;;;;;;18.80;9.63;;;;;;;14.62;59.97;100189.81;4399792;32;20188;-89
2022/11/07 08:19:20;;;;;;;22.15;10.43;;;;;;;14.64;59.98;100190.59;4399898;32;20470;-90
2022/11/07 08:21:45;;;;;;;28.27;10.02;;;;;;;14.74;59.98;100184.06;4399393;32;20192;-90
2022/11/07 08:24:10;;;;;;;18.30;10.18;;;;;;;14.79;59.98;100185.63;4399150;32;26453;-90
2022/11/07 08:26:36;;;;;;;25.48;9.75;;;;;;;14.87;60.00;100178.28;4424829;32;20403;-90
2022/11/07 08:29:02;;;;;;;28.12;10.27;;;;;;;14.87;60.00;100179.16;4412344;32;20131;-90
2022/11/07 08:31:27;;;;;;;21.17;9.88;;;;;;;14.93;59.99;100178.91;4399627;32;20137;-89
2022/11/07 08:33:56;;;;;;;19.40;9.90;;;;;;;15.10;60.01;100179.91;4412446;32;20102;-90
2022/11/07 08:36:21;;;;;;;23.92;10.40;;;;;;;15.20;60.01;100171.59;4399866;32;20121;-90
2022/11/07 08:38:47;;;;;;;20.12;9.35;;;;;;;15.28;60.01;100176.50;4411687;32;25001;-90
2022/11/07 08:41:12;;;;;;;21.52;9.38;;;;;;;15.26;60.01;100175.72;4412220;32;20413;-90
2022/11/07 08:43:37;;;;;;;22.85;10.32;;;;;;;15.32;60.01;100178.06;4411983;32;20133;-90
2022/11/07 08:46:03;;;;;;;22.40;10.30;;;;;;;15.53;60.02;100177.09;4412155;32;20102;-90
2022/11/07 08:48:28;;;;;;;20.30;9.95;;;;;;;15.49;60.03;100175.53;4412213;32;20131;-90
2022/11/07 08:50:55;;;;;;;22.23;9.98;;;;;;;15.63;60.04;100181.06;4412166;32;20124;-90
2022/11/07 08:53:21;;;;;;;19.92;9.18;;;;;;;15.62;60.03;100184.59;4399540;32;20097;-90
2022/11/07 08:55:46;;;;;;;21.23;9.65;;;;;;;15.63;60.04;100175.81;4400147;32;20149;-90
2022/11/07 08:58:13;;;;;;;20.88;9.75;;;;;;;15.58;60.03;100185.63;4399158;32;20132;-90
2022/11/07 09:00:39;;;;;;;24.10;9.73;;;;;;;15.55;60.04;100183.13;4399593;32;20484;-90
2022/11/07 09:03:05;;;;;;;16.08;9.05;;;;;;;15.72;60.04;100182.38;4399314;32;20093;-90
2022/11/07 09:05:30;;;;;;;23.12;9.77;;;;;;;15.81;60.04;100191.59;4411770;32;20470;-89
2022/11/07 09:07:55;;;;;;;18.95;9.32;;;;;;;15.73;60.04;100194.59;4399115;32;20153;-90
2022/11/07 09:10:21;;;;;;;18.87;8.45;;;;;;;15.42;60.02;100197.72;4412065;32;20174;-90
2022/11/07 09:12:47;;;;;;;23.05;10.23;;;;;;;15.42;60.02;100202.97;4399070;32;20120;-90
2022/11/07 09:15:12;;;;;;;15.90;8.82;;;;;;;15.75;60.04;100200.63;4399061;32;20129;-90
2022/11/07 09:17:38;;;;;;;19.92;8.93;;;;;;;15.85;60.04;100194.03;4411780;32;20414;-90
2022/11/07 09:20:04;;;;;;;20.20;8.95;;;;;;;15.69;60.03;100203.53;4398524;32;23439;-90
2022/11/07 09:22:30;;;;;;;17.42;8.30;;;;;;;15.78;60.04;100195.22;4399152;32;20157;-89
2022/11/07 09:24:55;;;;;;;23.75;9.20;;;;;;;15.49;60.03;100208.78;4411620;32;20137;-89
2022/11/07 09:27:20;;;;;;;21.30;8.57;;;;;;;15.47;60.03;100206.25;4424419;32;20184;-90
2022/11/07 09:29:46;;;;;;;16.60;8.70;;;;;;;15.40;60.03;100203.97;4398982;32;20101;-90
2022/11/07 09:32:11;;;;;;;18.80;9.15;;;;;;;15.47;60.02;100205.38;4411631;32;20125;-90
2022/11/07 09:34:37;;;;;;;20.35;8.63;;;;;;;15.45;60.02;100199.38;4411484;32;20121;-90
2022/11/07 09:37:02;;;;;;;18.92;9.00;;;;;;;15.28;60.01;100207.97;4411677;32;20184;-90
2022/11/07 09:39:27;;;;;;;16.55;8.40;;;;;;;15.32;60.01;100197.28;4398421;32;20468;-90
2022/11/07 09:42:18;;;;;;;17.62;8.52;;;;;;;15.38;60.02;100211.03;4411133;32;20451;-90
2022/11/07 09:44:46;;;;;;;;;;;;;;;15.40;60.01;100211.84;4413160;32;20137;-90
2022/11/07 09:47:13;;;;;;;14.27;8.40;;;;;;;15.46;60.02;100209.78;4438253;32;19976;-90
2022/11/07 09:49:44;;;;;;;17.33;8.30;;;;;;;15.46;60.02;100209.78;4423879;32;20085;-90
2022/11/07 09:52:15;;;;;;;18.85;8.50;;;;;;;15.60;60.03;100196.91;4411491;32;20370;-90
2022/11/07 09:54:44;;;;;;;19.70;8.95;;;;;;;15.51;60.03;100192.06;4423925;32;20097;-90
2022/11/07 09:57:13;;;;;;;19.85;9.43;;;;;;;15.55;60.02;100196.25;4414147;32;20389;-91
2022/11/07 09:59:42;;;;;;;17.62;8.68;;;;;;;15.58;60.03;100203.13;4413950;32;20433;-90
2022/11/07 10:02:18;;;;;;;19.83;8.75;;;;;;;15.42;60.02;100202.13;4413796;32;20123;-90
2022/11/07 10:04:43;;;;;;;20.23;9.13;;;;;;;15.60;60.03;100201.31;4401288;32;20136;-90
2022/11/07 10:07:24;;;;;;;24.37;9.75;;;;;;;15.65;60.03;100201.97;4401764;32;20124;-90
2022/11/07 10:10:09;;;;;;;18.83;8.90;;;;;;;15.54;60.02;100198.94;4419633;32;20061;-90
2022/11/07 10:12:50;;;;;;;17.37;8.57;;;;;;;15.42;60.02;100207.38;4441767;32;20070;-89
2022/11/07 10:15:43;;;;;;;16.98;8.60;;;;;;;15.47;60.03;100203.63;4438136;32;20113;-91
2022/11/07 10:18:19;;;;;;;19.37;8.70;;;;;;;15.59;60.03;100197.84;4407091;32;20090;-90
2022/11/07 10:21:00;;;;;;;27.55;9.52;;;;;;;15.23;60.01;100202.94;4413421;32;20097;-90
2022/11/07 10:23:36;;;;;;;17.37;8.07;;;;;;;15.36;60.02;100193.59;4426873;32;20112;-90
2022/11/07 10:26:11;;;;;;;18.33;8.25;;;;;;;15.30;60.02;100195.63;4413212;32;20110;-90
2022/11/07 10:28:48;;;;;;;17.62;8.95;;;;;;;15.13;60.00;100193.75;4401449;32;20162;-91
2022/11/07 10:31:14;;;;;;;19.00;8.80;;;;;;;15.05;60.01;100191.47;4400619;32;20626;-90
2022/11/07 10:33:58;;;;;;;17.23;8.65;;;;;;;15.15;60.01;100193.72;4400139;32;20121;-90
2022/11/07 10:36:25;;;;;;;21.25;9.40;;;;;;;15.18;60.02;100190.94;4413398;32;20144;-89
2022/11/07 10:38:51;;;;;;;16.65;8.85;;;;;;;15.04;60.01;100195.00;4400712;32;20406;-89
2022/11/07 10:41:26;;;;;;;17.37;9.13;;;;;;;15.10;60.01;100187.78;4400741;32;20089;-90
2022/11/07 10:43:55;;;;;;;18.67;8.35;;;;;;;15.18;60.01;100183.94;4413158;32;20115;-91
2022/11/07 10:46:23;;;;;;;17.98;9.38;;;;;;;15.17;60.00;100189.25;4400813;32;20132;-89
2022/11/07 10:48:53;;;;;;;18.08;8.75;;;;;;;15.29;60.01;100184.28;4413047;32;20470;-89
2022/11/07 10:51:19;;;;;;;17.87;8.05;;;;;;;15.41;60.02;100179.44;4413239;32;20097;-90
2022/11/07 10:53:44;;;;;;;18.90;8.77;;;;;;;15.43;60.02;100173.19;4399873;32;26361;-90
2022/11/07 10:56:10;;;;;;;19.40;8.20;;;;;;;15.48;60.03;100171.22;4412994;32;20144;-90
2022/11/07 10:58:35;;;;;;;14.35;7.53;;;;;;;15.53;60.03;100169.22;4413133;32;20097;-90
2022/11/07 11:01:05;;;;;;;19.00;9.07;;;;;;;15.46;60.02;100165.19;4400439;32;20449;-90
2022/11/07 11:03:44;;;;;;;16.37;8.02;;;;;;;15.24;60.01;100161.81;4412958;32;20424;-90
2022/11/07 11:06:31;;;;;;;17.98;8.65;;;;;;;15.49;60.03;100157.16;4395203;32;20147;-90
2022/11/07 11:08:57;;;;;;;14.90;8.02;;;;;;;15.54;60.02;100152.56;4383398;32;20097;-90
2022/11/07 11:11:32;;;;;;;19.83;8.68;;;;;;;15.42;60.03;100153.13;4382673;32;20140;-90
2022/11/07 11:14:08;;;;;;;17.33;8.93;;;;;;;15.59;60.03;100147.97;4382627;32;20658;-90
2022/11/07 11:16:36;;;;;;;17.27;8.82;;;;;;;15.51;60.02;100144.84;4395605;32;20098;-90
2022/11/07 11:19:02;;;;;;;17.58;8.82;;;;;;;15.40;60.01;100143.62;4395198;32;20102;-90
2022/11/07 11:21:41;;;;;;;17.98;8.18;;;;;;;15.44;60.03;100147.81;4382914;32;20146;-90
2022/11/07 11:24:31;;;;;;;16.55;8.02;;;;;;;15.53;60.03;100135.13;4395371;32;20113;-90
2022/11/07 11:26:58;;;;;;;16.17;8.23;;;;;;;15.60;60.03;100140.94;4395073;32;20167;-90
2022/11/07 11:29:44;;;;;;;14.50;8.13;;;;;;;15.43;60.02;100146.97;4395323;32;20132;-90
2022/11/07 11:32:37;;;;;;;13.77;7.53;;;;;;;15.51;60.02;100150.09;4395623;32;20469;-89